Time;durP1;ratioP1;P1;durP2;ratioP2;P2;SDS_P1;SDS_P2;PMS_P1;PMS_P2;Temp;Humidity;BMP_temperature;BMP_pressure;BME280_temperature;BME280_humidity;BME280_pressure;Samples;Min_cycle;Max_cycle;Signal;HPM_P1;HPM_P2
2023/06/03 00:00:50;;;;;;;0.93;0.63;;;;;;;12.47;56.33;102058.53;6210789;28;20406;-77
2023/06/03 00:03:51;;;;;;;0.40;0.40;;;;;;;12.41;57.21;102052.59;6203812;28;20378;-77
2023/06/03 00:06:53;;;;;;;0.60;0.50;;;;;;;12.34;56.71;102047.63;6227498;28;20398;-77
2023/06/03 00:09:54;;;;;;;0.63;0.40;;;;;;;12.29;57.74;102053.06;6211698;28;20058;-77
2023/06/03 00:12:56;;;;;;;1.52;0.77;;;;;;;12.23;57.57;102052.47;6227453;28;20050;-77
2023/06/03 00:15:58;;;;;;;0.63;0.60;;;;;;;12.08;57.92;102064.44;6210739;28;20058;-77
2023/06/03 00:19:00;;;;;;;1.13;0.40;;;;;;;12.00;58.44;102066.53;6204339;28;20367;-77
2023/06/03 00:22:02;;;;;;;0.95;0.50;;;;;;;11.95;58.46;102064.06;6217778;28;20046;-77
2023/06/03 00:25:03;;;;;;;0.88;0.40;;;;;;;11.89;58.91;102070.41;6212779;28;20053;-77
2023/06/03 00:28:05;;;;;;;2.50;0.50;;;;;;;11.85;58.73;102070.59;6211233;28;20081;-77
2023/06/03 00:31:09;;;;;;;2.05;0.50;;;;;;;11.85;58.74;102068.81;6208149;28;20056;-76
2023/06/03 00:34:10;;;;;;;3.03;0.40;;;;;;;11.82;59.66;102061.03;6218610;28;20058;-77
2023/06/03 00:37:11;;;;;;;0.52;0.30;;;;;;;11.79;59.91;102060.25;6205653;28;20065;-77
2023/06/03 00:40:13;;;;;;;0.28;0.22;;;;;;;11.80;59.43;102064.59;6215087;28;20343;-77
2023/06/03 00:43:14;;;;;;;4.03;0.57;;;;;;;11.80;58.94;102056.69;6218805;28;20046;-77
2023/06/03 00:46:20;;;;;;;1.05;0.60;;;;;;;11.77;58.71;102060.31;6202231;28;20054;-77
2023/06/03 00:49:22;;;;;;;0.57;0.32;;;;;;;11.71;59.15;102064.94;6201934;28;20054;-77
2023/06/03 00:52:24;;;;;;;0.30;0.30;;;;;;;11.66;60.03;102055.44;6194027;28;20038;-77
2023/06/03 00:55:26;;;;;;;0.55;0.45;;;;;;;11.62;59.75;102063.50;6210651;28;20054;-77
2023/06/03 00:58:27;;;;;;;0.55;0.35;;;;;;;11.54;60.32;102058.53;6210216;28;20046;-77
2023/06/03 01:01:30;;;;;;;0.47;0.47;;;;;;;11.46;60.90;102060.59;6201191;28;20393;-77
2023/06/03 01:04:32;;;;;;;0.50;0.50;;;;;;;11.46;60.64;102065.84;6199592;28;20056;-77
2023/06/03 01:07:42;;;;;;;0.60;0.50;;;;;;;11.42;60.44;102053.72;6226287;28;20366;-77
2023/06/03 01:10:50;;;;;;;0.55;0.43;;;;;;;11.33;61.37;102054.03;6202537;28;20133;-77
2023/06/03 01:13:56;;;;;;;4.03;0.50;;;;;;;11.31;60.33;102071.63;6201650;28;20049;-77
2023/06/03 01:17:01;;;;;;;1.25;0.60;;;;;;;11.24;61.26;102071.00;6218262;28;20123;-77
2023/06/03 01:20:09;;;;;;;0.85;0.70;;;;;;;11.11;60.93;102070.56;6200803;28;20050;-77
2023/06/03 01:23:23;;;;;;;0.30;0.30;;;;;;;11.06;60.89;102074.28;6198982;28;20057;-77
2023/06/03 01:26:28;;;;;;;2.60;0.40;;;;;;;11.03;61.38;102077.84;6205174;28;20096;-77
2023/06/03 01:29:30;;;;;;;0.88;0.68;;;;;;;10.96;61.90;102072.88;6201136;28;20050;-77
2023/06/03 01:32:31;;;;;;;0.93;0.50;;;;;;;10.85;63.14;102078.47;6201526;28;20045;-77
2023/06/03 01:35:36;;;;;;;0.57;0.57;;;;;;;10.76;63.87;102078.78;6207438;28;20050;-77
2023/06/03 01:38:39;;;;;;;0.68;0.40;;;;;;;10.78;64.50;102084.84;6211524;28;20058;-77
2023/06/03 01:41:42;;;;;;;1.15;0.47;;;;;;;10.74;64.88;102085.88;6223719;28;20300;-77
2023/06/03 01:44:43;;;;;;;2.97;0.70;;;;;;;10.73;65.04;102077.13;6225772;28;20061;-77
2023/06/03 01:47:45;;;;;;;0.73;0.52;;;;;;;10.67;65.08;102085.19;6210631;28;20054;-77
2023/06/03 01:50:46;;;;;;;3.42;0.77;;;;;;;10.61;65.51;102085.38;6213889;28;20061;-77
2023/06/03 01:53:49;;;;;;;2.95;0.52;;;;;;;10.63;64.72;102094.09;6210026;28;20462;-77
2023/06/03 01:56:50;;;;;;;1.02;0.80;;;;;;;10.53;64.97;102084.78;6200379;28;20057;-77
2023/06/03 01:59:52;;;;;;;1.38;0.50;;;;;;;10.37;64.55;102089.66;6203160;28;20050;-77
2023/06/03 02:02:53;;;;;;;0.60;0.30;;;;;;;10.35;64.75;102092.31;6230766;28;20050;-77
2023/06/03 02:05:54;;;;;;;2.88;0.50;;;;;;;10.27;64.94;102089.09;6230425;28;20453;-77
2023/06/03 02:08:57;;;;;;;0.52;0.32;;;;;;;10.20;66.65;102086.66;6229809;28;20046;-77
2023/06/03 02:12:00;;;;;;;1.10;0.65;;;;;;;10.11;65.89;102085.16;6205409;28;20355;-77
2023/06/03 02:15:01;;;;;;;2.08;0.50;;;;;;;10.06;67.07;102087.06;6204690;28;20043;-77
2023/06/03 02:18:03;;;;;;;1.90;0.70;;;;;;;10.02;67.21;102080.19;6217255;28;20136;-77
2023/06/03 02:21:04;;;;;;;2.65;1.50;;;;;;;9.89;67.95;102083.16;6221482;28;20045;-77
2023/06/03 02:24:08;;;;;;;2.08;0.40;;;;;;;9.90;69.02;102081.38;6230013;28;20046;-77
2023/06/03 02:27:10;;;;;;;2.58;0.40;;;;;;;9.85;69.26;102083.28;6224396;28;20133;-77
2023/06/03 02:30:12;;;;;;;0.40;0.40;;;;;;;9.80;69.29;102082.56;6218612;28;20193;-77
2023/06/03 02:33:13;;;;;;;0.50;0.50;;;;;;;9.77;68.94;102087.91;6205630;28;20431;-77
2023/06/03 02:36:15;;;;;;;1.02;0.60;;;;;;;9.83;69.46;102083.34;6205624;28;20050;-77
2023/06/03 02:39:18;;;;;;;0.68;0.47;;;;;;;9.81;69.00;102082.53;6204683;28;20046;-77
2023/06/03 02:42:20;;;;;;;0.73;0.50;;;;;;;9.80;68.54;102083.41;6205627;28;20048;-77
2023/06/03 02:45:22;;;;;;;1.92;0.38;;;;;;;9.80;69.33;102080.78;6205173;28;20433;-77
2023/06/03 02:48:23;;;;;;;2.95;0.60;;;;;;;9.79;68.64;102089.59;6209830;28;20053;-77
2023/06/03 02:51:24;;;;;;;1.90;0.65;;;;;;;9.80;67.28;102098.31;6210834;28;20049;-77
2023/06/03 02:54:27;;;;;;;1.15;0.50;;;;;;;9.71;69.61;102095.94;6205106;28;20047;-77
2023/06/03 02:57:29;;;;;;;0.75;0.55;;;;;;;9.69;68.77;102095.16;6205002;28;20046;-77
2023/06/03 03:00:30;;;;;;;0.40;0.40;;;;;;;9.67;68.54;102089.91;6196197;28;20046;-77
2023/06/03 03:03:36;;;;;;;0.63;0.50;;;;;;;9.58;68.96;102098.03;6220077;28;20041;-77
2023/06/03 03:06:37;;;;;;;0.80;0.50;;;;;;;9.50;69.34;102100.03;6229330;28;20046;-77
2023/06/03 03:09:41;;;;;;;0.88;0.50;;;;;;;9.49;70.63;102100.91;6213835;28;20049;-77
2023/06/03 03:12:42;;;;;;;1.73;0.68;;;;;;;9.45;70.74;102102.78;6198266;28;20087;-77
2023/06/03 03:15:43;;;;;;;0.93;0.70;;;;;;;9.39;71.26;102103.78;6226623;28;20457;-77
2023/06/03 03:18:45;;;;;;;0.88;0.47;;;;;;;9.25;72.22;102102.44;6209342;28;20057;-77
2023/06/03 03:21:46;;;;;;;0.82;0.50;;;;;;;9.31;72.45;102100.53;6210501;28;20157;-77
2023/06/03 03:24:50;;;;;;;0.40;0.32;;;;;;;9.30;71.76;102101.41;6208705;28;20057;-77
2023/06/03 03:27:51;;;;;;;2.85;0.65;;;;;;;9.34;72.51;102096.94;6220551;28;20046;-77
2023/06/03 03:30:55;;;;;;;0.93;0.50;;;;;;;9.29;73.14;102104.94;6211970;28;20057;-77
2023/06/03 03:33:56;;;;;;;0.55;0.38;;;;;;;9.28;73.34;102102.38;6215722;28;20049;-77
2023/06/03 03:36:58;;;;;;;0.43;0.43;;;;;;;9.24;73.90;102112.06;6216703;28;20057;-77
2023/06/03 03:40:00;;;;;;;0.40;0.35;;;;;;;9.24;74.28;102105.97;6210754;28;20050;-77
2023/06/03 03:43:03;;;;;;;0.52;0.52;;;;;;;9.19;73.21;102115.72;6204045;28;20058;-77
2023/06/03 03:46:09;;;;;;;0.60;0.60;;;;;;;9.14;72.96;102106.22;6204174;28;20589;-76
2023/06/03 03:49:18;;;;;;;0.85;0.50;;;;;;;9.18;73.75;102116.63;6203242;28;20509;-77
2023/06/03 03:52:26;;;;;;;1.23;0.60;;;;;;;9.22;73.57;102113.00;6194150;28;20042;-77
2023/06/03 03:55:29;;;;;;;2.57;1.00;;;;;;;9.27;72.86;102111.16;6199828;28;20065;-77
2023/06/03 03:58:41;;;;;;;0.73;0.57;;;;;;;9.25;73.35;102108.53;6189648;28;20338;-77
2023/06/03 04:01:44;;;;;;;1.33;0.80;;;;;;;9.25;74.08;102123.44;6183214;28;20607;-77
2023/06/03 04:04:45;;;;;;;2.58;1.02;;;;;;;9.19;73.36;102108.72;6185106;28;20047;-77
2023/06/03 04:07:48;;;;;;;0.98;0.65;;;;;;;9.22;72.94;102113.88;6183197;28;20117;-77
2023/06/03 04:10:50;;;;;;;1.27;0.50;;;;;;;9.27;73.67;102108.53;6184699;28;20484;-77
2023/06/03 04:13:52;;;;;;;1.88;0.90;;;;;;;9.31;73.31;102118.91;6184744;28;20046;-77
2023/06/03 04:16:58;;;;;;;0.85;0.70;;;;;;;9.35;74.34;102119.66;6182477;28;20042;-77
2023/06/03 04:20:01;;;;;;;3.22;1.73;;;;;;;9.43;74.15;102125.56;6198713;28;20052;-77
2023/06/03 04:23:04;;;;;;;0.85;0.68;;;;;;;9.39;72.53;102118.69;6191540;28;20050;-77
2023/06/03 04:26:09;;;;;;;0.85;0.60;;;;;;;9.40;72.24;102125.63;6209242;28;20052;-77
2023/06/03 04:29:11;;;;;;;0.93;0.55;;;;;;;9.37;71.66;102120.50;6206911;28;20046;-77
2023/06/03 04:32:12;;;;;;;0.80;0.60;;;;;;;9.33;72.58;102124.94;6205232;28;20065;-77
2023/06/03 04:35:13;;;;;;;1.05;0.60;;;;;;;9.38;73.51;102127.47;6206572;28;20571;-77
2023/06/03 04:38:15;;;;;;;0.60;0.35;;;;;;;9.40;72.89;102116.03;6195446;28;20057;-77
2023/06/03 04:41:17;;;;;;;1.75;0.57;;;;;;;9.43;73.21;102125.56;6201916;28;20053;-77
2023/06/03 04:44:19;;;;;;;1.00;0.60;;;;;;;9.47;73.10;102111.47;6213107;28;20049;-77
2023/06/03 04:47:20;;;;;;;1.25;0.68;;;;;;;9.53;73.17;102115.69;6199325;28;20129;-77
2023/06/03 04:50:24;;;;;;;3.33;0.70;;;;;;;9.59;73.56;102120.78;6200930;28;20061;-77
2023/06/03 04:53:25;;;;;;;0.82;0.60;;;;;;;9.63;73.12;102125.06;6218587;28;20130;-76
2023/06/03 04:56:29;;;;;;;2.10;0.50;;;;;;;9.68;73.98;102122.31;6202529;28;20053;-77
2023/06/03 04:59:30;;;;;;;1.40;0.70;;;;;;;9.74;74.63;102116.88;6206868;28;20048;-77
2023/06/03 05:02:32;;;;;;;0.50;0.50;;;;;;;9.76;74.43;102133.44;6200363;28;20081;-77
2023/06/03 05:05:33;;;;;;;2.97;0.50;;;;;;;9.79;75.06;102122.84;6216812;28;20450;-77
2023/06/03 05:08:35;;;;;;;3.97;0.73;;;;;;;9.77;75.47;102128.16;6199747;28;20045;-77
2023/06/03 05:11:37;;;;;;;5.15;0.70;;;;;;;9.81;75.80;102129.78;6209997;28;20046;-77
2023/06/03 05:14:39;;;;;;;2.08;0.55;;;;;;;9.88;76.63;102130.47;6197603;28;20038;-76
2023/06/03 05:17:40;;;;;;;1.15;0.75;;;;;;;9.95;76.43;102131.13;6196548;28;20454;-76
2023/06/03 05:20:41;;;;;;;1.20;0.70;;;;;;;9.96;75.00;102133.75;6208289;28;20053;-77
2023/06/03 05:23:43;;;;;;;1.77;0.60;;;;;;;10.02;75.58;102130.06;6201946;28;20057;-77
2023/06/03 05:26:45;;;;;;;1.45;0.90;;;;;;;10.07;75.49;102128.19;6209754;28;20054;-77
2023/06/03 05:29:47;;;;;;;0.32;0.32;;;;;;;10.12;75.97;102127.13;6194021;28;20050;-77
2023/06/03 05:32:48;;;;;;;0.88;0.60;;;;;;;10.16;75.43;102128.75;6200211;28;20324;-77
2023/06/03 05:35:49;;;;;;;0.63;0.50;;;;;;;10.21;75.94;102131.25;6217723;28;20046;-77
2023/06/03 05:38:50;;;;;;;0.60;0.60;;;;;;;10.25;74.97;102127.66;6209611;28;20080;-77
2023/06/03 05:41:53;;;;;;;0.65;0.47;;;;;;;10.30;72.32;102131.00;6225261;28;20046;-77
2023/06/03 05:44:55;;;;;;;1.50;0.60;;;;;;;10.37;73.14;102135.19;6193672;28;20050;-77
2023/06/03 05:47:57;;;;;;;0.60;0.60;;;;;;;10.46;73.71;102126.16;6201386;28;20054;-77
2023/06/03 05:50:58;;;;;;;1.65;0.60;;;;;;;10.52;73.19;102139.09;6209467;28;20045;-77
2023/06/03 05:53:59;;;;;;;3.15;0.70;;;;;;;10.60;71.95;102133.63;6216631;28;20359;-76
2023/06/03 05:57:02;;;;;;;1.75;0.60;;;;;;;10.69;72.55;102129.84;6218823;28;20045;-77
2023/06/03 06:00:04;;;;;;;0.80;0.60;;;;;;;10.76;73.13;102134.00;6224827;28;20366;-76
2023/06/03 06:03:06;;;;;;;5.65;2.05;;;;;;;10.80;71.99;102136.47;6225744;28;20046;-77
2023/06/03 06:06:07;;;;;;;2.10;0.68;;;;;;;10.83;71.16;102127.63;6211851;28;20054;-76
2023/06/03 06:09:08;;;;;;;1.15;0.47;;;;;;;10.85;70.14;102126.66;6224808;28;20057;-76
2023/06/03 06:12:11;;;;;;;1.30;0.70;;;;;;;10.91;71.02;102138.78;6206987;28;20073;-76
2023/06/03 06:15:13;;;;;;;0.52;0.40;;;;;;;10.95;71.70;102134.28;6200887;28;20061;-76
2023/06/03 06:18:15;;;;;;;1.95;0.63;;;;;;;11.00;72.16;102135.00;6198075;28;20355;-76
2023/06/03 06:21:16;;;;;;;0.63;0.47;;;;;;;11.04;71.70;102129.56;6192176;28;20043;-76
2023/06/03 06:24:17;;;;;;;2.83;1.23;;;;;;;11.14;71.27;102122.22;6196262;28;20043;-76
2023/06/03 06:27:20;;;;;;;1.73;0.50;;;;;;;11.15;72.53;102124.81;6200867;28;20391;-76
2023/06/03 06:30:22;;;;;;;0.47;0.40;;;;;;;11.22;71.87;102120.22;6200226;28;20054;-76
2023/06/03 06:33:23;;;;;;;0.57;0.30;;;;;;;11.28;72.20;102122.63;6200555;28;20354;-76
2023/06/03 06:36:29;;;;;;;3.25;0.77;;;;;;;11.33;72.41;102125.09;6200970;28;20046;-76
2023/06/03 06:39:52;;;;;;;0.57;0.50;;;;;;;11.40;73.55;102129.25;6205436;28;20350;-76
2023/06/03 06:42:55;;;;;;;3.80;0.95;;;;;;;11.43;71.87;102126.50;6208981;28;20054;-76
2023/06/03 06:45:57;;;;;;;1.25;0.50;;;;;;;11.50;72.68;102129.78;6203071;28;20057;-76
2023/06/03 06:48:58;;;;;;;1.35;0.60;;;;;;;11.55;72.01;102130.47;6205259;28;20050;-76
2023/06/03 06:52:00;;;;;;;0.57;0.47;;;;;;;11.63;69.70;102128.44;6221326;28;20352;-76
2023/06/03 06:55:02;;;;;;;0.43;0.30;;;;;;;11.75;68.50;102121.84;6229258;28;20054;-76
2023/06/03 06:58:05;;;;;;;0.40;0.40;;;;;;;11.75;65.92;102125.34;6229529;28;20057;-76
2023/06/03 07:01:07;;;;;;;1.40;0.60;;;;;;;11.86;67.12;102135.53;6228610;28;20053;-76
2023/06/03 07:04:08;;;;;;;2.58;0.73;;;;;;;11.93;67.65;102129.97;6229112;28;20393;-76
2023/06/03 07:07:10;;;;;;;0.65;0.57;;;;;;;12.02;64.05;102127.94;6228912;28;20057;-76
2023/06/03 07:10:11;;;;;;;0.40;0.40;;;;;;;12.08;65.48;102132.97;6228562;28;20465;-76
2023/06/03 07:13:15;;;;;;;1.58;0.45;;;;;;;12.15;64.15;102131.81;6228956;28;20049;-76
2023/06/03 07:16:17;;;;;;;0.50;0.47;;;;;;;12.23;64.75;102129.75;6209379;28;20046;-76
2023/06/03 07:19:18;;;;;;;0.77;0.30;;;;;;;12.32;64.00;102131.19;6216287;28;20045;-76
2023/06/03 07:22:20;;;;;;;0.40;0.40;;;;;;;12.42;62.33;102130.75;6207839;28;20453;-76
2023/06/03 07:25:31;;;;;;;0.88;0.50;;;;;;;12.56;61.44;102129.38;6228873;28;20049;-76
2023/06/03 07:28:37;;;;;;;1.73;0.40;;;;;;;12.59;62.08;102130.13;6220825;28;20045;-76
2023/06/03 07:31:39;;;;;;;0.32;0.32;;;;;;;12.68;61.54;102124.47;6205632;28;20042;-76
2023/06/03 07:34:41;;;;;;;2.10;0.50;;;;;;;12.75;63.86;102121.56;6191585;28;20047;-76
2023/06/03 07:37:42;;;;;;;0.55;0.43;;;;;;;12.77;61.41;102122.38;6202879;28;20050;-76
2023/06/03 07:40:44;;;;;;;1.45;0.45;;;;;;;12.82;62.94;102125.69;6200758;28;20077;-76
2023/06/03 07:43:46;;;;;;;0.98;0.50;;;;;;;12.92;62.76;102124.38;6211916;28;20050;-76
2023/06/03 07:46:55;;;;;;;1.23;0.40;;;;;;;13.06;62.35;102126.47;6208329;28;20055;-75
2023/06/03 07:49:58;;;;;;;0.43;0.38;;;;;;;13.16;60.59;102123.34;6196049;28;20054;-75
2023/06/03 07:53:03;;;;;;;0.55;0.50;;;;;;;13.21;60.20;102128.44;6207307;28;20050;-75
2023/06/03 07:56:09;;;;;;;0.75;0.50;;;;;;;13.28;60.69;102123.81;6219271;28;20049;-75
2023/06/03 07:59:13;;;;;;;1.90;0.60;;;;;;;13.45;57.92;102124.81;6213342;28;20054;-75
2023/06/03 08:02:14;;;;;;;1.42;0.60;;;;;;;13.52;59.50;102127.19;6228295;28;20461;-75
2023/06/03 08:05:16;;;;;;;2.10;0.63;;;;;;;13.64;57.14;102127.50;6224152;28;20042;-75
2023/06/03 08:08:19;;;;;;;0.47;0.40;;;;;;;13.65;59.30;102123.94;6208493;28;20049;-75
2023/06/03 08:11:21;;;;;;;2.15;0.60;;;;;;;13.73;57.52;102134.16;6210844;28;20050;-75
2023/06/03 08:14:25;;;;;;;3.40;0.65;;;;;;;13.80;55.44;102132.94;6211494;28;20046;-75
2023/06/03 08:17:38;;;;;;;0.63;0.50;;;;;;;13.82;56.26;102119.69;6203229;28;20038;-75
2023/06/03 08:20:40;;;;;;;0.65;0.43;;;;;;;13.93;57.54;102115.63;6202137;28;20081;-76
2023/06/03 08:23:41;;;;;;;2.00;0.68;;;;;;;14.04;56.83;102128.38;6203052;28;20042;-76
2023/06/03 08:26:44;;;;;;;0.32;0.32;;;;;;;14.10;56.32;102133.34;6215405;28;20057;-76
2023/06/03 08:29:47;;;;;;;1.13;0.57;;;;;;;14.17;54.67;102128.63;6225708;28;20050;-76
2023/06/03 08:32:49;;;;;;;0.35;0.35;;;;;;;14.18;53.00;102125.94;6196834;28;20054;-76
2023/06/03 08:35:50;;;;;;;1.02;0.55;;;;;;;14.18;54.18;102125.94;6194116;28;20043;-79
2023/06/03 08:38:52;;;;;;;1.85;0.50;;;;;;;14.23;55.74;102136.31;6210844;28;20057;-76
2023/06/03 08:41:58;;;;;;;0.60;0.60;;;;;;;14.38;52.93;102127.63;6210253;28;20057;-75
2023/06/03 08:45:05;;;;;;;1.00;0.60;;;;;;;14.41;53.40;102126.66;6210689;28;20070;-75
2023/06/03 08:48:07;;;;;;;0.95;0.28;;;;;;;14.44;52.92;102129.13;6198927;28;20050;-77
2023/06/03 08:51:11;;;;;;;0.40;0.30;;;;;;;14.61;54.02;102131.88;6197901;28;20054;-76
2023/06/03 08:54:14;;;;;;;2.25;0.90;;;;;;;14.58;54.45;102131.16;6202775;28;20447;-77
2023/06/03 08:57:19;;;;;;;1.42;0.75;;;;;;;14.64;52.21;102123.78;6198920;28;20050;-76
2023/06/03 09:00:24;;;;;;;1.17;0.43;;;;;;;14.76;54.16;102132.03;6208731;28;20405;-76
2023/06/03 09:03:26;;;;;;;6.95;0.50;;;;;;;14.84;52.64;102132.53;6226540;28;20045;-76
2023/06/03 09:06:28;;;;;;;5.82;0.60;;;;;;;14.92;54.50;102127.72;6226649;28;20049;-75
2023/06/03 09:09:31;;;;;;;0.40;0.30;;;;;;;15.01;53.37;102127.28;6212513;28;20053;-76
2023/06/03 09:12:34;;;;;;;1.92;0.50;;;;;;;14.99;52.50;102123.84;6202047;28;20049;-77
2023/06/03 09:15:38;;;;;;;0.60;0.30;;;;;;;15.04;51.16;102121.84;6201965;28;20430;-76
2023/06/03 09:18:40;;;;;;;0.73;0.73;;;;;;;15.15;51.10;102108.03;6202080;28;20046;-75
2023/06/03 09:21:43;;;;;;;2.10;0.43;;;;;;;15.20;49.09;102120.09;6201275;28;20054;-76
2023/06/03 09:24:44;;;;;;;0.85;0.47;;;;;;;15.24;50.35;102110.22;6216684;28;20049;-76
2023/06/03 09:27:46;;;;;;;1.23;0.60;;;;;;;15.20;50.56;102113.97;6226491;28;20056;-76
2023/06/03 09:30:48;;;;;;;1.30;0.57;;;;;;;15.22;50.50;102114.75;6225495;28;20374;-76
2023/06/03 09:33:51;;;;;;;1.98;0.50;;;;;;;15.35;50.09;102113.19;6202323;28;20356;-76
2023/06/03 09:36:52;;;;;;;2.05;0.60;;;;;;;15.36;51.62;102104.31;6201796;28;20058;-76
2023/06/03 09:39:53;;;;;;;1.58;0.75;;;;;;;15.49;48.25;102109.84;6201211;28;20050;-78
2023/06/03 09:42:55;;;;;;;0.65;0.30;;;;;;;15.37;49.40;102106.00;6201615;28;20050;-76
2023/06/03 09:46:09;;;;;;;1.35;0.30;;;;;;;15.40;48.81;102111.16;6201676;28;20057;-76
2023/06/03 09:49:12;;;;;;;1.20;0.43;;;;;;;15.42;49.38;102111.06;6200897;28;20053;-76
2023/06/03 09:52:31;;;;;;;2.10;0.47;;;;;;;15.40;48.75;102099.72;6204228;28;20049;-76
2023/06/03 09:55:33;;;;;;;0.30;0.30;;;;;;;15.46;47.92;102102.88;6218722;28;20046;-76
2023/06/03 09:58:34;;;;;;;2.83;0.40;;;;;;;15.53;46.54;102105.19;6225973;28;20132;-76
2023/06/03 10:01:38;;;;;;;0.60;0.35;;;;;;;15.51;45.58;102093.84;6225027;28;20144;-76
2023/06/03 10:04:41;;;;;;;1.15;0.28;;;;;;;15.46;47.48;102097.59;6225566;28;20343;-76
2023/06/03 10:07:48;;;;;;;0.88;0.40;;;;;;;15.65;48.01;102089.56;6225766;28;20050;-76
2023/06/03 10:10:56;;;;;;;0.30;0.30;;;;;;;15.95;48.64;102088.84;6224924;28;20057;-76
2023/06/03 10:14:05;;;;;;;0.63;0.30;;;;;;;16.00;46.20;102081.50;6225532;28;20057;-76
2023/06/03 10:17:09;;;;;;;0.63;0.50;;;;;;;16.32;46.24;102086.81;6225580;28;20336;-76
2023/06/03 10:20:11;;;;;;;0.68;0.50;;;;;;;16.39;45.16;102078.41;6226406;28;20057;-76
2023/06/03 10:23:13;;;;;;;1.13;0.50;;;;;;;16.30;45.93;102076.28;6226090;28;20393;-76
2023/06/03 10:26:16;;;;;;;0.75;0.40;;;;;;;16.35;45.12;102074.25;6230616;28;20050;-76
2023/06/03 10:29:18;;;;;;;0.95;0.50;;;;;;;16.30;46.09;102083.38;6229678;28;20053;-76
2023/06/03 10:32:23;;;;;;;3.33;0.40;;;;;;;16.39;43.20;102067.78;6230575;28;20050;-76
2023/06/03 10:35:27;;;;;;;0.52;0.43;;;;;;;16.59;47.10;102069.34;6213579;28;20049;-76
2023/06/03 10:38:30;;;;;;;0.65;0.40;;;;;;;16.62;44.63;102060.31;6230195;28;20057;-76
2023/06/03 10:41:32;;;;;;;2.63;0.43;;;;;;;16.61;45.48;102064.78;6229397;28;20053;-76
2023/06/03 10:44:34;;;;;;;0.40;0.40;;;;;;;16.68;47.30;102060.00;6229988;28;20041;-76
2023/06/03 10:47:39;;;;;;;0.60;0.32;;;;;;;16.73;46.79;102055.28;6229607;28;20069;-76
2023/06/03 10:50:54;;;;;;;0.25;0.25;;;;;;;17.06;45.89;102062.22;6223010;28;20050;-76
2023/06/03 10:54:10;;;;;;;1.00;0.52;;;;;;;17.31;44.89;102061.59;6213857;28;20058;-76
2023/06/03 10:57:15;;;;;;;0.45;0.45;;;;;;;17.20;43.78;102051.63;6229961;28;20054;-76
2023/06/03 11:00:49;;;;;;;0.43;0.43;;;;;;;17.20;45.61;102049.81;6229155;28;20042;-76
2023/06/03 11:04:16;;;;;;;0.30;0.30;;;;;;;17.22;45.65;102055.03;6229644;28;20057;-76
2023/06/03 11:07:45;;;;;;;0.40;0.30;;;;;;;17.59;42.62;102053.66;6229501;28;20091;-76
2023/06/03 11:10:46;;;;;;;0.90;0.38;;;;;;;17.85;43.19;102053.84;6228687;28;20046;-76
2023/06/03 11:13:48;;;;;;;5.28;0.50;;;;;;;17.81;43.33;102039.06;6229315;28;20434;-76
2023/06/03 11:17:12;;;;;;;0.32;0.32;;;;;;;17.89;42.91;102045.56;6229020;28;20053;-76
2023/06/03 11:20:38;;;;;;;0.77;0.50;;;;;;;18.02;43.27;102034.16;6228773;28;20045;-76
2023/06/03 11:23:41;;;;;;;0.73;0.30;;;;;;;18.11;41.26;102031.75;6222737;28;20046;-77
2023/06/03 11:26:42;;;;;;;0.40;0.40;;;;;;;18.11;40.22;102030.91;6229029;28;20042;-76
2023/06/03 11:29:56;;;;;;;0.63;0.40;;;;;;;18.24;42.25;102032.66;6228038;28;20347;-76
2023/06/03 11:33:09;;;;;;;1.35;0.52;;;;;;;18.47;42.07;102030.31;6227578;28;20046;-76
2023/06/03 11:36:50;;;;;;;1.48;0.60;;;;;;;18.72;39.71;102033.09;6228490;28;20046;-76
2023/06/03 11:40:05;;;;;;;0.30;0.30;;;;;;;18.85;40.74;102033.13;6227952;28;20060;-76
2023/06/03 11:43:10;;;;;;;2.67;0.38;;;;;;;18.97;37.57;102026.09;6226946;28;20058;-76
2023/06/03 11:46:11;;;;;;;0.30;0.30;;;;;;;18.83;39.00;102021.69;6214506;28;20054;-76
2023/06/03 11:49:13;;;;;;;1.02;0.40;;;;;;;18.93;38.28;102020.09;6228041;28;20050;-76
2023/06/03 11:52:15;;;;;;;0.60;0.40;;;;;;;19.14;38.26;102015.13;6225564;28;20062;-75
2023/06/03 11:55:25;;;;;;;0.43;0.43;;;;;;;19.51;36.80;102016.06;6228022;28;20347;-76
2023/06/03 11:58:26;;;;;;;;;;;;;;;19.66;36.19;102022.13;6228524;28;20517;-76
2023/06/03 12:01:27;;;;;;;0.52;0.40;;;;;;;19.84;36.62;102022.63;6227697;28;19928;-76
2023/06/03 12:04:29;;;;;;;0.63;0.40;;;;;;;19.93;36.48;102021.13;6228111;28;20050;-76
2023/06/03 12:07:30;;;;;;;0.80;0.55;;;;;;;20.14;37.47;102018.72;6227760;28;20439;-76
2023/06/03 12:10:40;;;;;;;2.20;1.17;;;;;;;20.46;36.20;102016.31;6227412;28;20053;-76
2023/06/03 12:13:42;;;;;;;0.73;0.40;;;;;;;20.56;36.34;102019.19;6227730;28;20042;-76
2023/06/03 12:16:45;;;;;;;0.57;0.40;;;;;;;20.59;33.86;102005.63;6227815;28;20074;-76
2023/06/03 12:19:49;;;;;;;0.65;0.45;;;;;;;20.45;33.67;101994.13;6226940;28;20049;-76
2023/06/03 12:22:50;;;;;;;0.63;0.50;;;;;;;20.44;33.82;102004.91;6218086;28;20046;-76
2023/06/03 12:25:56;;;;;;;0.68;0.40;;;;;;;20.47;34.88;102000.22;6218931;28;20049;-76
2023/06/03 12:29:06;;;;;;;0.75;0.47;;;;;;;20.79;33.74;102007.59;6227701;28;20458;-77
2023/06/03 12:32:07;;;;;;;;;;;;;;;20.97;32.62;102000.00;6218002;28;20050;-76
2023/06/03 12:35:12;;;;;;;1.75;0.70;;;;;;;21.03;32.80;101991.53;6221123;28;19928;-76
2023/06/03 12:38:14;;;;;;;0.63;0.40;;;;;;;20.93;31.62;101979.81;6227232;28;20057;-76
2023/06/03 12:41:16;;;;;;;0.40;0.32;;;;;;;20.85;33.67;101991.13;6226710;28;20062;-76
2023/06/03 12:44:18;;;;;;;0.38;0.30;;;;;;;21.18;34.46;101989.47;6226631;28;20050;-76
2023/06/03 12:47:21;;;;;;;0.57;0.55;;;;;;;21.46;33.58;101982.81;6227082;28;20358;-76
2023/06/03 12:50:23;;;;;;;1.15;0.73;;;;;;;21.69;33.45;101992.50;6226385;28;20473;-77
2023/06/03 12:53:25;;;;;;;0.75;0.55;;;;;;;21.71;26.87;101989.69;6223471;28;20042;-76
2023/06/03 12:56:28;;;;;;;0.55;0.55;;;;;;;21.68;29.34;101980.13;6223420;28;20052;-76
2023/06/03 12:59:30;;;;;;;0.57;0.47;;;;;;;21.80;30.82;101988.97;6225990;28;20053;-76
2023/06/03 13:02:31;;;;;;;1.08;0.55;;;;;;;21.86;29.57;101976.94;6226673;28;20581;-76
2023/06/03 13:05:33;;;;;;;1.23;0.50;;;;;;;21.77;33.09;101981.19;6226469;28;20041;-76
2023/06/03 13:08:34;;;;;;;1.13;0.80;;;;;;;21.80;30.05;101972.91;6226769;28;20074;-76
2023/06/03 13:11:37;;;;;;;0.80;0.50;;;;;;;21.89;30.75;101969.50;6225841;28;20050;-76
2023/06/03 13:14:38;;;;;;;0.77;0.50;;;;;;;22.35;30.65;101972.91;6226532;28;20060;-76
2023/06/03 13:17:40;;;;;;;1.65;0.32;;;;;;;22.66;31.24;101974.69;6226462;28;20049;-76
2023/06/03 13:20:42;;;;;;;0.35;0.30;;;;;;;22.54;28.06;101971.22;6225989;28;20042;-77
2023/06/03 13:23:43;;;;;;;0.68;0.68;;;;;;;22.24;28.41;101971.09;6218542;28;20347;-76
2023/06/03 13:26:46;;;;;;;0.60;0.45;;;;;;;22.24;31.02;101963.91;6226333;28;20453;-76
2023/06/03 13:29:47;;;;;;;0.85;0.50;;;;;;;22.33;28.69;101956.94;6225756;28;20054;-76
2023/06/03 13:32:49;;;;;;;0.47;0.40;;;;;;;22.80;30.64;101957.44;6202645;28;20390;-76
2023/06/03 13:35:50;;;;;;;0.55;0.50;;;;;;;22.79;27.89;101943.16;6201810;28;20367;-76
2023/06/03 13:38:51;;;;;;;0.65;0.52;;;;;;;22.71;30.08;101948.38;6201648;28;20050;-76
2023/06/03 13:41:57;;;;;;;0.50;0.50;;;;;;;22.65;29.09;101943.50;6201168;28;20061;-76
2023/06/03 13:44:58;;;;;;;0.40;0.40;;;;;;;22.93;27.62;101943.84;6210143;28;20061;-76
2023/06/03 13:47:59;;;;;;;0.28;0.28;;;;;;;23.30;27.29;101938.81;6225903;28;20350;-77
2023/06/03 13:51:01;;;;;;;0.85;0.40;;;;;;;23.21;32.27;101934.22;6224385;28;20053;-76
2023/06/03 13:54:02;;;;;;;0.93;0.50;;;;;;;23.39;28.61;101934.44;6218318;28;20046;-76
2023/06/03 13:57:05;;;;;;;1.10;0.40;;;;;;;23.21;27.75;101934.22;6225484;28;20046;-77
2023/06/03 14:00:08;;;;;;;0.50;0.38;;;;;;;23.20;28.33;101935.22;6225303;28;20443;-76
2023/06/03 14:03:10;;;;;;;0.55;0.40;;;;;;;23.23;30.90;101934.97;6225807;28;20050;-76
2023/06/03 14:06:11;;;;;;;0.57;0.40;;;;;;;23.46;29.41;101939.13;6225631;28;20046;-76
2023/06/03 14:09:13;;;;;;;0.55;0.50;;;;;;;23.34;27.96;101923.25;6224947;28;20085;-76
2023/06/03 14:12:15;;;;;;;0.65;0.50;;;;;;;23.41;28.66;101927.97;6225582;28;20053;-77
2023/06/03 14:15:18;;;;;;;0.30;0.30;;;;;;;23.43;27.97;101928.66;6225571;28;20053;-76